Time;durP1;ratioP1;P1;durP2;ratioP2;P2;SDS_P1;SDS_P2;PMS_P1;PMS_P2;Temp;Humidity;BMP_temperature;BMP_pressure;BME280_temperature;BME280_humidity;BME280_pressure;Samples;Min_cycle;Max_cycle;Signal;HPM_P1;HPM_P2
2021/10/18 00:02:10;;;;;;;1.60;1.40;;;22.00;53.50;;;;;;5071979;28;20944;-82
2021/10/18 00:04:36;;;;;;;1.83;1.60;;;22.00;53.50;;;;;;5071701;28;20417;-82
2021/10/18 00:07:04;;;;;;;1.50;1.40;;;22.00;54.00;;;;;;5105136;28;20549;-82
2021/10/18 00:09:30;;;;;;;1.67;1.40;;;22.00;53.50;;;;;;5089163;28;20171;-82
2021/10/18 00:12:15;;;;;;;2.67;1.40;;;22.00;53.50;;;;;;5089646;28;20955;-82
2021/10/18 00:14:43;;;;;;;2.40;1.63;;;22.00;53.40;;;;;;5071724;28;20202;-82
2021/10/18 00:17:15;;;;;;;2.50;1.60;;;21.90;53.40;;;;;;5105266;28;20419;-82
2021/10/18 00:19:40;;;;;;;2.27;1.60;;;21.90;53.40;;;;;;5071100;28;20405;-82
2021/10/18 00:22:06;;;;;;;1.90;1.40;;;21.90;53.40;;;;;;5069642;28;20481;-82
2021/10/18 00:24:32;;;;;;;2.03;1.40;;;21.90;53.50;;;;;;5068459;28;20198;-82
2021/10/18 00:27:03;;;;;;;2.57;1.50;;;21.90;53.50;;;;;;5050889;28;20179;-82
2021/10/18 00:29:29;;;;;;;1.93;1.73;;;21.90;53.50;;;;;;5069238;28;20167;-82
2021/10/18 00:31:55;;;;;;;1.60;1.30;;;21.90;53.50;;;;;;5075950;28;20429;-82
2021/10/18 00:34:21;;;;;;;1.53;1.43;;;21.90;53.50;;;;;;5051389;28;20245;-82
2021/10/18 00:36:46;;;;;;;1.70;1.40;;;21.90;53.50;;;;;;5068563;28;20952;-81
2021/10/18 00:39:13;;;;;;;1.67;1.33;;;21.90;53.50;;;;;;5068925;28;20171;-82
2021/10/18 00:41:38;;;;;;;1.43;1.23;;;21.90;53.50;;;;;;5050692;28;20608;-82
2021/10/18 00:44:04;;;;;;;1.57;1.47;;;21.90;53.50;;;;;;5051260;28;20432;-82
2021/10/18 00:46:33;;;;;;;3.20;1.70;;;21.90;53.50;;;;;;5050852;28;20186;-82
2021/10/18 00:48:59;;;;;;;1.70;1.40;;;21.90;53.50;;;;;;5068335;28;20432;-82
2021/10/18 00:51:27;;;;;;;1.67;1.57;;;21.90;53.50;;;;;;5068707;28;20409;-82
2021/10/18 00:53:54;;;;;;;1.40;1.30;;;21.90;53.50;;;;;;5068986;28;20477;-82
2021/10/18 00:56:21;;;;;;;1.50;1.40;;;21.90;53.50;;;;;;5068341;28;20406;-82
2021/10/18 00:58:48;;;;;;;2.20;1.30;;;21.90;53.50;;;;;;5050517;28;20477;-82
2021/10/18 01:01:14;;;;;;;1.93;1.47;;;21.90;53.60;;;;;;5050546;28;20517;-82
2021/10/18 01:03:41;;;;;;;2.13;1.80;;;21.90;53.50;;;;;;5050975;28;20417;-82
2021/10/18 01:06:07;;;;;;;1.73;1.57;;;21.90;53.50;;;;;;5050176;28;20484;-82
2021/10/18 01:08:33;;;;;;;1.40;1.23;;;21.90;53.50;;;;;;5050700;28;20426;-82
2021/10/18 01:10:59;;;;;;;1.80;1.50;;;21.90;53.50;;;;;;5068221;28;20800;-82
2021/10/18 01:13:25;;;;;;;1.97;1.60;;;21.90;53.50;;;;;;5049522;28;20425;-82
2021/10/18 01:15:50;;;;;;;1.60;1.37;;;21.90;53.50;;;;;;5067180;28;20393;-82
2021/10/18 01:18:18;;;;;;;1.30;1.20;;;21.90;53.50;;;;;;5049407;28;20414;-82
2021/10/18 01:20:44;;;;;;;1.60;1.40;;;21.90;53.50;;;;;;5049215;28;20246;-82
2021/10/18 01:23:11;;;;;;;1.50;1.40;;;21.90;53.50;;;;;;5067686;28;20405;-82
2021/10/18 01:25:38;;;;;;;1.63;1.50;;;21.90;53.50;;;;;;5067196;28;20444;-82
2021/10/18 01:28:04;;;;;;;2.03;1.60;;;21.90;53.50;;;;;;5049954;28;20422;-82
2021/10/18 01:30:30;;;;;;;2.40;1.40;;;21.90;53.50;;;;;;5049205;28;20418;-82
2021/10/18 01:32:55;;;;;;;1.57;1.40;;;21.90;53.50;;;;;;5067257;28;20167;-82
2021/10/18 01:35:22;;;;;;;1.73;1.37;;;21.90;53.50;;;;;;5049458;28;20209;-82
2021/10/18 01:37:49;;;;;;;2.10;1.60;;;21.90;53.50;;;;;;5067242;28;20402;-82
2021/10/18 01:40:19;;;;;;;1.47;1.37;;;21.90;53.50;;;;;;5067668;28;20397;-82
2021/10/18 01:42:44;;;;;;;2.60;1.60;;;21.90;53.50;;;;;;5049648;28;20417;-81
2021/10/18 01:45:13;;;;;;;1.60;1.50;;;21.90;53.50;;;;;;5048327;28;20467;-81
2021/10/18 01:47:40;;;;;;;1.77;1.63;;;21.90;53.50;;;;;;5048615;28;20530;-81
2021/10/18 01:50:10;;;;;;;1.70;1.50;;;21.90;53.50;;;;;;5048251;28;20849;-81
2021/10/18 01:52:36;;;;;;;1.87;1.20;;;21.90;53.50;;;;;;5065505;28;20418;-81
2021/10/18 01:55:06;;;;;;;2.23;1.70;;;21.90;53.50;;;;;;5047628;28;20484;-81
2021/10/18 01:57:32;;;;;;;1.60;1.50;;;21.90;53.50;;;;;;5047462;28;20417;-80
2021/10/18 02:00:00;;;;;;;1.60;1.40;;;21.90;53.50;;;;;;5065280;28;20473;-81
2021/10/18 02:02:26;;;;;;;2.50;1.37;;;21.90;53.50;;;;;;5047509;28;20421;-81
2021/10/18 02:04:52;;;;;;;2.13;1.30;;;21.90;53.50;;;;;;5065078;28;20410;-81
2021/10/18 02:07:18;;;;;;;1.30;1.17;;;21.90;53.60;;;;;;5047307;28;20266;-81
2021/10/18 02:09:44;;;;;;;2.23;1.50;;;21.90;53.60;;;;;;5047290;28;20179;-80
2021/10/18 02:12:12;;;;;;;1.40;1.30;;;21.90;53.60;;;;;;5065346;28;20551;-81
2021/10/18 02:14:37;;;;;;;1.40;1.10;;;21.90;53.60;;;;;;5047222;28;20195;-81
2021/10/18 02:17:04;;;;;;;1.30;1.13;;;21.90;53.60;;;;;;5064923;28;20406;-81
2021/10/18 02:19:29;;;;;;;1.50;1.23;;;21.90;53.60;;;;;;5046338;28;20176;-81
2021/10/18 02:21:55;;;;;;;3.07;1.40;;;21.90;53.60;;;;;;5064329;28;20457;-81
2021/10/18 02:24:21;;;;;;;1.80;1.43;;;21.90;53.60;;;;;;5046575;28;20523;-81
2021/10/18 02:26:47;;;;;;;1.50;1.30;;;21.90;53.70;;;;;;5046581;28;20213;-81
2021/10/18 02:29:12;;;;;;;2.70;1.50;;;21.90;53.60;;;;;;5064963;28;20414;-81
2021/10/18 02:31:38;;;;;;;1.50;1.30;;;21.90;53.60;;;;;;5046948;28;20657;-81
2021/10/18 02:34:04;;;;;;;1.30;1.20;;;21.90;53.70;;;;;;5047455;28;20270;-80
2021/10/18 02:36:30;;;;;;;1.33;1.23;;;21.90;53.70;;;;;;5047204;28;20689;-81
2021/10/18 02:38:56;;;;;;;1.53;1.23;;;21.90;53.70;;;;;;5064631;28;20171;-80
2021/10/18 02:41:22;;;;;;;1.30;1.20;;;21.90;53.70;;;;;;5064338;28;20478;-80
2021/10/18 02:43:47;;;;;;;1.43;1.23;;;21.90;53.60;;;;;;5064428;28;20500;-80
2021/10/18 02:46:13;;;;;;;1.90;1.70;;;21.90;53.70;;;;;;5045775;28;20417;-80
2021/10/18 02:48:39;;;;;;;1.87;1.33;;;21.90;53.70;;;;;;5046328;28;20194;-81
2021/10/18 02:51:04;;;;;;;1.50;1.40;;;21.90;53.70;;;;;;5063252;28;20270;-80
2021/10/18 02:53:30;;;;;;;1.33;1.23;;;21.90;53.70;;;;;;5045382;28;20201;-81
2021/10/18 02:55:56;;;;;;;1.50;1.23;;;21.90;53.70;;;;;;5064371;28;20171;-81
2021/10/18 02:58:21;;;;;;;1.83;1.60;;;21.90;53.70;;;;;;5063959;28;20249;-80
2021/10/18 03:00:47;;;;;;;2.07;1.30;;;21.90;53.70;;;;;;5045997;28;20171;-81
2021/10/18 03:03:13;;;;;;;2.50;1.40;;;21.90;53.70;;;;;;5045662;28;20175;-81
2021/10/18 03:05:39;;;;;;;1.40;1.30;;;21.90;53.70;;;;;;5046090;28;20233;-81
2021/10/18 03:08:04;;;;;;;2.00;1.47;;;21.90;53.70;;;;;;5063522;28;20432;-80
2021/10/18 03:10:30;;;;;;;1.93;1.30;;;21.80;53.60;;;;;;5063770;28;20198;-81
2021/10/18 03:12:56;;;;;;;1.40;1.20;;;21.90;53.70;;;;;;5064030;28;20174;-81
2021/10/18 03:15:21;;;;;;;2.00;1.47;;;21.90;53.70;;;;;;5063918;28;20194;-80
2021/10/18 03:17:47;;;;;;;2.37;1.37;;;21.90;53.70;;;;;;5063839;28;20177;-81
2021/10/18 03:20:13;;;;;;;1.60;1.50;;;21.90;53.70;;;;;;5045804;28;20242;-81
2021/10/18 03:22:40;;;;;;;1.63;1.30;;;21.90;53.70;;;;;;5063689;28;20171;-80
2021/10/18 03:25:07;;;;;;;1.70;1.30;;;21.90;53.70;;;;;;5045741;28;20417;-81
2021/10/18 03:27:33;;;;;;;1.70;1.40;;;21.90;53.70;;;;;;5062942;28;20418;-81
2021/10/18 03:29:58;;;;;;;2.30;1.93;;;21.90;53.70;;;;;;5045850;28;20548;-80
2021/10/18 03:32:24;;;;;;;1.63;1.20;;;21.90;53.70;;;;;;5045473;28;20175;-81
2021/10/18 03:34:50;;;;;;;2.10;1.50;;;21.90;53.70;;;;;;5062717;28;20197;-81
2021/10/18 03:37:15;;;;;;;1.77;1.20;;;21.90;53.70;;;;;;5046375;28;20183;-81
2021/10/18 03:39:41;;;;;;;2.00;1.60;;;21.90;53.70;;;;;;5044588;28;20202;-81
2021/10/18 03:42:07;;;;;;;1.70;1.13;;;21.90;53.70;;;;;;5045001;28;20228;-80
2021/10/18 03:44:33;;;;;;;1.70;1.23;;;21.90;53.70;;;;;;5064187;28;20178;-80
2021/10/18 03:46:58;;;;;;;1.50;1.30;;;21.90;53.70;;;;;;5063505;28;20257;-81
2021/10/18 03:49:24;;;;;;;1.57;1.47;;;21.90;53.70;;;;;;5062794;28;20202;-81
2021/10/18 03:51:50;;;;;;;1.33;1.20;;;21.90;53.70;;;;;;5062964;28;20171;-81
2021/10/18 03:54:16;;;;;;;1.30;1.00;;;21.90;53.70;;;;;;5063358;28;20195;-81
2021/10/18 03:56:41;;;;;;;1.33;1.13;;;21.80;53.70;;;;;;5063370;28;20206;-82
2021/10/18 03:59:07;;;;;;;1.30;1.17;;;21.80;53.70;;;;;;5045246;28;20175;-81
2021/10/18 04:01:33;;;;;;;1.50;1.20;;;21.80;53.70;;;;;;5045384;28;20175;-81
2021/10/18 04:04:02;;;;;;;1.37;1.27;;;21.80;53.70;;;;;;5063858;28;20182;-81
2021/10/18 04:06:27;;;;;;;1.50;1.40;;;21.80;53.70;;;;;;5063512;28;20186;-81
2021/10/18 04:08:54;;;;;;;1.70;1.30;;;21.90;53.80;;;;;;5063686;28;20402;-81
2021/10/18 04:11:20;;;;;;;1.37;1.20;;;21.80;53.70;;;;;;5045247;28;20179;-81
2021/10/18 04:13:46;;;;;;;1.70;1.50;;;21.80;53.70;;;;;;5063220;28;20471;-81
2021/10/18 04:16:11;;;;;;;1.47;1.30;;;21.80;53.70;;;;;;5045530;28;20437;-81
2021/10/18 04:18:37;;;;;;;1.30;1.20;;;21.80;53.80;;;;;;5045278;28;20193;-81
2021/10/18 04:21:05;;;;;;;1.30;1.00;;;21.80;53.80;;;;;;5062978;28;20176;-80
2021/10/18 04:23:32;;;;;;;1.70;1.13;;;21.80;53.80;;;;;;5063976;28;20435;-80
2021/10/18 04:25:57;;;;;;;1.70;1.40;;;21.80;53.80;;;;;;5045881;28;20471;-80
2021/10/18 04:28:23;;;;;;;1.50;1.30;;;21.80;53.80;;;;;;5063270;28;20480;-80
2021/10/18 04:30:49;;;;;;;1.20;1.00;;;21.80;53.80;;;;;;5063454;28;20167;-80
2021/10/18 04:33:15;;;;;;;2.80;2.00;;;21.80;53.80;;;;;;5062856;28;20754;-81
2021/10/18 04:35:41;;;;;;;2.93;1.90;;;21.80;53.70;;;;;;5046709;28;20857;-82
2021/10/18 04:38:06;;;;;;;1.67;1.57;;;21.80;53.60;;;;;;5046477;28;20207;-81
2021/10/18 04:40:33;;;;;;;2.30;2.07;;;21.80;53.60;;;;;;5065826;28;20228;-82
2021/10/18 04:42:58;;;;;;;3.03;2.00;;;21.80;53.50;;;;;;5082826;28;20597;-82
2021/10/18 04:45:24;;;;;;;1.87;1.47;;;21.90;53.50;;;;;;5049932;28;20417;-82
2021/10/18 04:47:51;;;;;;;2.27;1.87;;;21.80;53.40;;;;;;5049062;28;20175;-82
2021/10/18 04:50:18;;;;;;;2.40;1.77;;;21.80;53.40;;;;;;5067545;28;20440;-82
2021/10/18 04:52:44;;;;;;;1.83;1.50;;;21.90;53.50;;;;;;5049523;28;20413;-82
2021/10/18 04:55:10;;;;;;;2.43;1.80;;;21.90;53.50;;;;;;5049377;28;20552;-82
2021/10/18 04:58:02;;;;;;;2.90;1.90;;;21.90;53.50;;;;;;5068127;28;20409;-82
2021/10/18 05:00:35;;;;;;;2.33;1.50;;;21.90;53.40;;;;;;5049392;28;20443;-82
2021/10/18 05:03:01;;;;;;;3.17;1.83;;;21.90;53.50;;;;;;5065400;28;20428;-82
2021/10/18 05:12:22;;;;;;;1.77;1.50;;;21.90;53.40;;;;;;4971121;28;20432;-82
2021/10/18 05:14:48;;;;;;;2.17;2.00;;;21.90;53.50;;;;;;5046845;28;20513;-81
2021/10/18 05:17:13;;;;;;;2.00;1.63;;;21.90;53.40;;;;;;5065713;28;20182;-81
2021/10/18 05:19:39;;;;;;;2.10;1.50;;;21.90;53.40;;;;;;5066407;28;20172;-81
2021/10/18 05:22:05;;;;;;;2.20;1.73;;;22.00;53.40;;;;;;5047593;28;20171;-81
2021/10/18 05:24:30;;;;;;;3.20;1.67;;;22.00;53.40;;;;;;5047309;28;20232;-80
2021/10/18 05:26:56;;;;;;;1.60;1.30;;;22.00;53.40;;;;;;5065423;28;20167;-81
2021/10/18 05:32:44;;;;;;;2.07;1.30;;;22.00;53.40;;;;;;5065371;28;20194;-82
2021/10/18 05:35:10;;;;;;;2.77;1.50;;;22.00;53.40;;;;;;5065540;28;20453;-81
2021/10/18 05:37:43;;;;;;;2.80;1.63;;;22.00;53.50;;;;;;5051903;28;20179;-81
2021/10/18 05:40:11;;;;;;;2.70;1.87;;;22.00;53.40;;;;;;5087889;28;20180;-82
2021/10/18 05:42:37;;;;;;;2.23;1.60;;;22.00;53.40;;;;;;5087976;28;20511;-81
2021/10/18 05:45:07;;;;;;;2.17;1.30;;;22.00;53.40;;;;;;5087360;28;20451;-82
2021/10/18 05:47:32;;;;;;;2.40;1.50;;;22.00;53.40;;;;;;5087855;28;20181;-81
2021/10/18 05:50:05;;;;;;;2.13;1.60;;;22.00;53.50;;;;;;5105084;28;20428;-81
2021/10/18 05:52:33;;;;;;;2.00;1.70;;;22.00;53.40;;;;;;5087679;28;20205;-82
2021/10/18 05:54:59;;;;;;;2.47;1.43;;;22.00;53.50;;;;;;5088226;28;20471;-81
2021/10/18 05:57:25;;;;;;;2.47;1.70;;;22.00;53.50;;;;;;5105053;28;20412;-81
2021/10/18 05:59:50;;;;;;;1.63;1.37;;;22.00;53.50;;;;;;5105001;28;20174;-81
2021/10/18 06:02:18;;;;;;;2.03;1.30;;;22.00;53.50;;;;;;5106578;28;20639;-82
2021/10/18 06:04:46;;;;;;;1.70;1.50;;;22.00;53.50;;;;;;5107976;28;20647;-81
2021/10/18 06:07:12;;;;;;;1.70;1.50;;;22.00;53.50;;;;;;5068619;28;20426;-81
2021/10/18 06:09:45;;;;;;;2.17;1.97;;;22.00;53.40;;;;;;5083436;28;20416;-81
2021/10/18 06:12:11;;;;;;;1.60;1.47;;;22.00;53.40;;;;;;5091038;28;20225;-81
2021/10/18 06:14:37;;;;;;;1.70;1.60;;;22.00;53.40;;;;;;5071279;28;20441;-81
2021/10/18 06:17:03;;;;;;;2.07;1.60;;;22.00;53.40;;;;;;5066956;28;20451;-81
2021/10/18 06:19:29;;;;;;;2.40;1.70;;;22.00;53.40;;;;;;5066737;28;20183;-82
2021/10/18 06:22:00;;;;;;;1.40;1.30;;;22.00;53.40;;;;;;5068710;28;20429;-82
2021/10/18 06:24:29;;;;;;;1.60;1.40;;;22.00;53.40;;;;;;5064967;28;20179;-80
2021/10/18 06:27:10;;;;;;;;;;;;;;;;;;;;;
2021/10/18 06:29:39;;;;;;;1.80;1.30;;;22.10;53.40;;;;;;5079697;28;20425;-81
2021/10/18 06:32:06;;;;;;;1.40;1.30;;;22.00;53.30;;;;;;5087155;28;20408;-82
2021/10/18 06:34:32;;;;;;;1.70;1.50;;;22.10;53.40;;;;;;5074842;28;20523;-80
2021/10/18 06:36:58;;;;;;;2.00;1.50;;;22.10;53.40;;;;;;5074343;28;20421;-81
2021/10/18 06:39:24;;;;;;;3.20;1.37;;;22.10;53.40;;;;;;5075820;28;20416;-82
2021/10/18 06:41:50;;;;;;;2.10;1.27;;;22.10;53.40;;;;;;5078758;28;20413;-81
2021/10/18 06:44:16;;;;;;;1.40;1.20;;;22.10;53.40;;;;;;5067625;28;20420;-81
2021/10/18 06:46:45;;;;;;;1.40;1.30;;;22.10;53.40;;;;;;5073919;28;20539;-80
2021/10/18 06:49:13;;;;;;;1.70;1.60;;;22.10;53.40;;;;;;5090659;28;20428;-80
2021/10/18 06:51:46;;;;;;;2.23;2.00;;;22.10;53.40;;;;;;5090709;28;20401;-81
2021/10/18 06:54:18;;;;;;;2.07;1.40;;;22.10;53.40;;;;;;5072308;28;20514;-81
2021/10/18 06:56:49;;;;;;;1.40;1.17;;;22.10;53.30;;;;;;5101153;28;20424;-80
2021/10/18 06:59:18;;;;;;;2.63;1.50;;;22.10;53.40;;;;;;5084980;28;20453;-81
2021/10/18 07:01:44;;;;;;;1.90;1.50;;;22.10;53.30;;;;;;5072408;28;20408;-80
2021/10/18 07:04:10;;;;;;;1.60;1.50;;;22.10;53.30;;;;;;5089104;28;20425;-80
2021/10/18 07:06:36;;;;;;;1.43;1.33;;;22.10;53.30;;;;;;5088073;28;20212;-81
2021/10/18 07:09:07;;;;;;;2.73;1.83;;;22.10;53.30;;;;;;5072559;28;20412;-82
2021/10/18 07:11:33;;;;;;;1.50;1.40;;;22.10;53.30;;;;;;5107269;28;20421;-81
2021/10/18 07:13:59;;;;;;;1.50;1.40;;;22.10;53.30;;;;;;5091164;28;20459;-81
2021/10/18 07:16:26;;;;;;;1.93;1.57;;;22.10;53.30;;;;;;5090761;28;20910;-81
2021/10/18 07:18:52;;;;;;;1.70;1.30;;;22.10;53.30;;;;;;5072813;28;20170;-82
2021/10/18 07:21:19;;;;;;;1.93;1.63;;;22.10;53.30;;;;;;5073439;28;20419;-81
2021/10/18 07:23:51;;;;;;;2.00;1.30;;;22.10;53.30;;;;;;5074037;28;20416;-82
2021/10/18 07:26:18;;;;;;;1.57;1.23;;;22.10;53.30;;;;;;5088199;28;20416;-82
2021/10/18 07:28:44;;;;;;;1.87;1.27;;;22.10;53.30;;;;;;5091660;28;20416;-81
2021/10/18 07:31:13;;;;;;;2.20;1.30;;;22.10;53.40;;;;;;5091334;28;20429;-81
2021/10/18 07:34:16;;;;;;;1.80;1.23;;;22.10;53.40;;;;;;5076792;28;20413;-82
2021/10/18 07:36:49;;;;;;;1.90;1.60;;;22.10;53.40;;;;;;5074108;28;20416;-80
2021/10/18 07:39:21;;;;;;;1.50;1.30;;;22.10;53.40;;;;;;5079561;28;20394;-81
2021/10/18 07:41:52;;;;;;;1.37;1.27;;;22.10;53.40;;;;;;5068257;28;20438;-81
2021/10/18 07:44:24;;;;;;;2.70;1.37;;;22.10;53.40;;;;;;5092549;28;20434;-81
2021/10/18 07:46:55;;;;;;;1.50;1.40;;;22.10;53.40;;;;;;5106091;28;20416;-83
2021/10/18 07:49:23;;;;;;;1.60;1.43;;;22.10;53.40;;;;;;5084464;28;20444;-81
2021/10/18 07:51:51;;;;;;;1.97;1.30;;;22.10;53.40;;;;;;5084638;28;20440;-85
2021/10/18 07:54:23;;;;;;;1.73;1.20;;;22.10;53.40;;;;;;5085760;28;20456;-82
2021/10/18 07:56:54;;;;;;;1.77;1.40;;;22.10;53.40;;;;;;5083889;28;20920;-81
2021/10/18 07:59:22;;;;;;;1.53;1.33;;;22.10;53.40;;;;;;5080814;28;20473;-81
2021/10/18 08:01:48;;;;;;;2.53;1.90;;;22.10;53.40;;;;;;5070742;28;20433;-82
2021/10/18 08:07:40;;;;;;;1.27;1.10;;;22.10;53.30;;;;;;5079128;28;20396;-80
2021/10/18 08:10:07;;;;;;;1.97;1.30;;;22.10;53.40;;;;;;5063234;28;20421;-81
2021/10/18 08:12:38;;;;;;;1.40;1.30;;;22.10;53.40;;;;;;5063868;28;20433;-83
2021/10/18 08:15:04;;;;;;;2.10;1.40;;;22.10;53.40;;;;;;5061634;28;20460;-83
2021/10/18 08:17:30;;;;;;;2.80;1.60;;;22.10;53.40;;;;;;5066900;28;20404;-83
2021/10/18 08:19:56;;;;;;;1.67;1.50;;;22.10;53.40;;;;;;5083264;28;20477;-82
2021/10/18 08:22:21;;;;;;;1.60;1.40;;;22.10;53.30;;;;;;5070667;28;20534;-82
2021/10/18 08:24:51;;;;;;;1.30;1.20;;;22.10;53.30;;;;;;5086111;28;20181;-82
2021/10/18 08:27:17;;;;;;;1.70;1.40;;;22.10;53.30;;;;;;5086188;28;20175;-82
2021/10/18 08:30:11;;;;;;;1.63;1.40;;;22.10;53.30;;;;;;5053041;28;20429;-83
2021/10/18 08:32:37;;;;;;;1.87;1.20;;;22.20;53.30;;;;;;5086050;28;20250;-82
2021/10/18 08:35:07;;;;;;;1.77;1.50;;;22.10;53.30;;;;;;5051990;28;20468;-82
2021/10/18 08:40:18;;;;;;;1.70;1.60;;;22.10;53.30;;;;;;5088270;28;20422;-82
2021/10/18 08:43:03;;;;;;;1.20;1.10;;;22.10;53.30;;;;;;5088666;28;20412;-82
2021/10/18 08:45:29;;;;;;;1.27;1.03;;;22.10;53.30;;;;;;5070613;28;20423;-82
2021/10/18 08:47:57;;;;;;;2.07;1.20;;;22.10;53.30;;;;;;5087159;28;20567;-82
2021/10/18 08:50:25;;;;;;;1.60;1.30;;;22.10;53.30;;;;;;5067322;28;20499;-82
2021/10/18 08:52:55;;;;;;;1.50;1.20;;;22.20;53.40;;;;;;5070306;28;20421;-83
2021/10/18 08:55:21;;;;;;;1.67;1.57;;;22.20;53.40;;;;;;5066527;28;20464;-83
2021/10/18 08:57:47;;;;;;;1.63;1.30;;;22.20;53.40;;;;;;5077826;28;20451;-82
2021/10/18 09:00:39;;;;;;;1.87;1.67;;;22.20;53.40;;;;;;5088768;28;20416;-83
2021/10/18 09:03:38;;;;;;;1.33;1.20;;;22.20;53.30;;;;;;5098847;28;20418;-83
2021/10/18 09:06:21;;;;;;;1.70;1.60;;;22.20;53.40;;;;;;5070796;28;20425;-82
2021/10/18 09:08:53;;;;;;;2.70;1.63;;;22.20;53.40;;;;;;5114944;28;20432;-82
2021/10/18 09:11:27;;;;;;;2.03;1.40;;;22.10;53.40;;;;;;5098926;28;20400;-82
2021/10/18 09:13:57;;;;;;;2.00;1.23;;;22.10;53.40;;;;;;5082355;28;20464;-82
2021/10/18 09:16:44;;;;;;;2.13;1.50;;;22.10;53.40;;;;;;5083962;28;20454;-82
2021/10/18 09:19:26;;;;;;;2.13;1.50;;;22.20;53.50;;;;;;5087362;28;20424;-82
2021/10/18 09:21:54;;;;;;;2.00;1.50;;;22.10;53.40;;;;;;5091553;28;20432;-82
2021/10/18 09:24:32;;;;;;;2.10;1.47;;;22.10;53.40;;;;;;5097724;28;20412;-82
2021/10/18 09:27:09;;;;;;;2.20;1.70;;;22.20;53.50;;;;;;5082006;28;20423;-82
2021/10/18 09:29:46;;;;;;;1.53;1.43;;;22.20;53.50;;;;;;5089399;28;20421;-83
2021/10/18 09:32:21;;;;;;;1.87;1.60;;;22.10;53.40;;;;;;5093172;28;20408;-82
2021/10/18 09:34:47;;;;;;;2.43;1.83;;;22.10;53.40;;;;;;5068037;28;20449;-82
2021/10/18 09:37:15;;;;;;;2.00;1.50;;;22.10;53.40;;;;;;5085840;28;20416;-82
2021/10/18 09:39:47;;;;;;;1.90;1.60;;;22.10;53.40;;;;;;5085950;28;20491;-82
2021/10/18 09:42:16;;;;;;;2.30;1.73;;;22.20;53.50;;;;;;5076813;28;20444;-81
2021/10/18 10:52:35;;;;;;;6.67;2.60;;;22.10;53.50;;;;;;5038256;28;20439;-82
2021/10/18 10:55:56;;;;;;;;;;;;;;;;;;;;;
2021/10/18 10:59:16;;;;;;;3.37;2.80;;;22.10;53.50;;;;;;5082825;28;20432;-83
2021/10/18 11:02:09;;;;;;;;;;;;;;;;;;;;;
2021/10/18 11:04:58;;;;;;;5.07;2.60;;;22.10;53.50;;;;;;5043295;28;20432;-85
2021/10/18 11:08:09;;;;;;;4.80;2.50;;;22.10;53.50;;;;;;4983709;28;20413;-82
2021/10/18 11:11:22;;;;;;;4.40;3.00;;;22.20;53.60;;;;;;4988079;28;20436;-82
2021/10/18 11:14:02;;;;;;;6.27;2.87;;;22.20;53.60;;;;;;4969938;28;20436;-81
2021/10/18 11:16:30;;;;;;;4.27;2.87;;;22.10;53.50;;;;;;5001879;28;20560;-82
2021/10/18 11:19:01;;;;;;;3.93;2.80;;;22.20;53.50;;;;;;5001436;28;20428;-81
2021/10/18 11:21:41;;;;;;;3.40;2.93;;;22.20;53.50;;;;;;5004522;28;20849;-81
2021/10/18 11:24:18;;;;;;;5.03;2.90;;;22.20;53.50;;;;;;4984587;28;20444;-82
2021/10/18 11:26:55;;;;;;;4.97;3.50;;;22.20;53.50;;;;;;4986303;28;20421;-82
2021/10/18 11:29:57;;;;;;;11.40;4.50;;;22.20;53.40;;;;;;4988023;28;20425;-82
2021/10/18 11:36:05;;;;;;;;;;;;;;;;;;;;;
2021/10/18 11:38:31;;;;;;;16.53;8.70;;;22.20;53.50;;;;;;4999409;28;20530;-82
2021/10/18 11:40:59;;;;;;;22.47;12.90;;;22.20;53.40;;;;;;4997312;28;20412;-82
2021/10/18 11:43:30;;;;;;;28.50;12.40;;;22.20;53.40;;;;;;5008408;28;20182;-81
2021/10/18 11:45:58;;;;;;;26.80;15.07;;;22.20;53.40;;;;;;5063184;28;20421;-84
2021/10/18 11:48:29;;;;;;;27.60;15.97;;;22.20;53.40;;;;;;5059860;28;20406;-84
2021/10/18 11:51:08;;;;;;;44.17;18.27;;;22.20;54.00;;;;;;5061864;28;20433;-84
2021/10/18 11:53:41;;;;;;;43.90;20.37;;;22.20;53.40;;;;;;5066561;28;20425;-84
2021/10/18 11:56:10;;;;;;;35.03;19.00;;;22.20;53.40;;;;;;5065236;28;20962;-83
2021/10/18 11:58:41;;;;;;;42.10;20.20;;;22.20;53.40;;;;;;5064637;28;20459;-83
2021/10/18 12:01:17;;;;;;;44.60;20.83;;;22.30;53.50;;;;;;5074935;28;20420;-83
2021/10/18 12:03:43;;;;;;;46.80;23.37;;;22.30;53.50;;;;;;5075665;28;20514;-83
2021/10/18 12:06:11;;;;;;;46.33;23.00;;;22.30;53.50;;;;;;5058676;28;20445;-83
2021/10/18 12:08:40;;;;;;;49.90;22.77;;;22.30;53.50;;;;;;5077853;28;20174;-83
2021/10/18 12:11:11;;;;;;;49.10;24.27;;;22.30;53.50;;;;;;5055992;28;20414;-84
2021/10/18 12:13:39;;;;;;;53.90;24.15;;;22.20;53.40;;;;;;5071105;28;20405;-82
2021/10/18 12:16:09;;;;;;;49.37;24.70;;;22.30;53.50;;;;;;5069568;28;20449;-81
2021/10/18 12:18:45;;;;;;;50.50;25.30;;;22.30;53.50;;;;;;5094470;28;20412;-81
2021/10/18 12:21:32;;;;;;;55.37;26.70;;;22.30;53.50;;;;;;5058292;28;20514;-81
2021/10/18 12:24:05;;;;;;;50.17;25.10;;;22.30;53.50;;;;;;5088267;28;20412;-81
2021/10/18 12:26:40;;;;;;;53.20;24.77;;;22.30;53.50;;;;;;5065862;28;20472;-81
2021/10/18 12:29:17;;;;;;;52.93;25.40;;;22.30;53.50;;;;;;5114502;28;20451;-81
2021/10/18 12:31:50;;;;;;;58.90;26.40;;;22.30;53.50;;;;;;5066841;28;20997;-81
2021/10/18 12:34:22;;;;;;;52.13;25.43;;;22.30;53.50;;;;;;5073486;28;20479;-81
2021/10/18 12:37:05;;;;;;;62.83;27.07;;;22.30;53.50;;;;;;5088555;28;20440;-81
2021/10/18 12:39:48;;;;;;;50.10;25.30;;;22.30;53.50;;;;;;5077500;28;20424;-81
2021/10/18 12:42:23;;;;;;;54.07;27.13;;;22.30;53.50;;;;;;5095144;28;20443;-81
2021/10/18 12:45:09;;;;;;;47.70;23.20;;;22.30;53.50;;;;;;5075422;28;20411;-81
2021/10/18 12:47:37;;;;;;;41.90;22.37;;;22.20;53.50;;;;;;5067953;28;20410;-81
2021/10/18 12:50:05;;;;;;;47.03;22.77;;;22.20;53.40;;;;;;5079427;28;20440;-81
2021/10/18 12:52:39;;;;;;;47.77;23.00;;;22.20;53.40;;;;;;5088440;28;20480;-81
2021/10/18 12:55:26;;;;;;;49.63;22.63;;;22.20;53.40;;;;;;5067544;28;20461;-81
2021/10/18 12:58:06;;;;;;;44.10;22.77;;;22.30;53.50;;;;;;5060957;28;20393;-84
2021/10/18 13:01:10;;;;;;;46.47;21.77;;;22.30;53.50;;;;;;5072336;28;20431;-84
2021/10/18 13:06:36;;;;;;;29.00;19.20;;;22.30;53.60;;;;;;5064176;28;20425;-83
2021/10/18 13:09:05;;;;;;;35.13;20.10;;;22.20;53.50;;;;;;5049739;28;20425;-83
2021/10/18 13:11:30;;;;;;;42.60;19.73;;;22.20;53.50;;;;;;5049385;28;20428;-84
2021/10/18 13:13:58;;;;;;;35.93;18.33;;;22.20;53.50;;;;;;5067468;28;20946;-83
2021/10/18 13:16:24;;;;;;;36.60;18.37;;;22.30;53.50;;;;;;5071080;28;20182;-82
2021/10/18 13:18:51;;;;;;;33.07;19.70;;;22.30;53.50;;;;;;5085829;28;20415;-83
2021/10/18 13:21:20;;;;;;;38.00;19.17;;;22.30;53.50;;;;;;5071918;28;20421;-83
2021/10/18 13:23:49;;;;;;;36.40;18.37;;;22.30;53.50;;;;;;5090383;28;20484;-83
2021/10/18 13:26:15;;;;;;;34.27;18.73;;;22.30;53.40;;;;;;5108252;28;20407;-83
2021/10/18 13:28:41;;;;;;;35.97;19.97;;;22.30;53.40;;;;;;5069963;28;20471;-83
2021/10/18 13:31:09;;;;;;;34.73;18.77;;;22.30;53.50;;;;;;5087859;28;20415;-83
2021/10/18 13:33:38;;;;;;;33.70;19.70;;;22.30;53.40;;;;;;5087503;28;20238;-83
2021/10/18 13:36:06;;;;;;;36.50;20.90;;;22.30;53.40;;;;;;5071446;28;20795;-83
2021/10/18 13:38:33;;;;;;;32.33;19.60;;;22.30;53.40;;;;;;5089766;28;20420;-83
2021/10/18 13:40:59;;;;;;;34.03;18.43;;;22.30;53.40;;;;;;5069461;28;20445;-83
2021/10/18 13:43:26;;;;;;;35.03;19.30;;;22.30;53.40;;;;;;5072014;28;20174;-83
2021/10/18 13:45:53;;;;;;;35.47;20.60;;;22.30;53.40;;;;;;5089763;28;20421;-83
2021/10/18 13:48:22;;;;;;;30.43;17.70;;;22.30;53.40;;;;;;5053296;28;20433;-83
2021/10/18 13:50:54;;;;;;;36.37;19.47;;;22.30;53.40;;;;;;5085072;28;20472;-81
2021/10/18 13:53:25;;;;;;;36.70;19.23;;;22.30;53.40;;;;;;5079687;28;20439;-82
2021/10/18 13:55:51;;;;;;;40.53;18.97;;;22.30;53.40;;;;;;5090491;28;20475;-81
2021/10/18 13:58:19;;;;;;;35.83;19.73;;;22.30;53.50;;;;;;5092631;28;20484;-81
2021/10/18 14:00:46;;;;;;;36.53;17.50;;;22.40;53.50;;;;;;5088957;28;20432;-82
2021/10/18 14:03:13;;;;;;;38.50;19.97;;;22.40;53.50;;;;;;5074525;28;20409;-81
2021/10/18 14:05:40;;;;;;;25.83;16.90;;;22.40;53.50;;;;;;5082395;28;20769;-82
2021/10/18 14:08:07;;;;;;;34.63;15.67;;;22.40;53.50;;;;;;5074877;28;20423;-81
2021/10/18 14:10:34;;;;;;;29.73;16.37;;;22.40;53.50;;;;;;5088142;28;20408;-81
2021/10/18 14:13:03;;;;;;;34.93;17.10;;;22.40;53.50;;;;;;5084935;28;20412;-81
2021/10/18 14:15:31;;;;;;;32.07;16.00;;;22.40;54.10;;;;;;5073514;28;20484;-81
2021/10/18 14:17:57;;;;;;;32.73;17.87;;;22.40;53.50;;;;;;5084753;28;20420;-81
2021/10/18 14:20:24;;;;;;;35.80;17.80;;;22.40;53.50;;;;;;5081689;28;20414;-81
2021/10/18 14:22:51;;;;;;;33.40;17.60;;;22.50;53.60;;;;;;5070393;28;20431;-81
2021/10/18 14:25:19;;;;;;;30.20;17.40;;;22.50;53.60;;;;;;5073422;28;20429;-82
2021/10/18 14:27:45;;;;;;;30.30;15.90;;;22.50;53.60;;;;;;5074919;28;20435;-82
2021/10/18 14:30:14;;;;;;;34.00;17.20;;;22.50;53.60;;;;;;5091366;28;20415;-82
2021/10/18 14:32:40;;;;;;;28.53;15.97;;;22.50;53.60;;;;;;5080628;28;20523;-81